sensor_id;sensor_type;location;lat;lon;timestamp;P1;durP1;ratioP1;P2;durP2;ratioP2
26582;SDS011;14230;45.382;10.998;2022-09-02T00:01:36;6.88;;;2.53;;
26582;SDS011;14230;45.382;10.998;2022-09-02T00:04:07;6.85;;;2.30;;
26582;SDS011;14230;45.382;10.998;2022-09-02T00:06:40;6.25;;;2.80;;
26582;SDS011;14230;45.382;10.998;2022-09-02T00:09:09;4.68;;;2.70;;
26582;SDS011;14230;45.382;10.998;2022-09-02T00:11:38;3.35;;;2.30;;
26582;SDS011;14230;45.382;10.998;2022-09-02T00:14:09;8.00;;;2.03;;
26582;SDS011;14230;45.382;10.998;2022-09-02T00:16:45;3.88;;;2.30;;
26582;SDS011;14230;45.382;10.998;2022-09-02T00:19:20;2.83;;;2.05;;
26582;SDS011;14230;45.382;10.998;2022-09-02T00:21:50;4.50;;;2.13;;
26582;SDS011;14230;45.382;10.998;2022-09-02T00:24:19;5.43;;;2.20;;
26582;SDS011;14230;45.382;10.998;2022-09-02T00:26:53;3.40;;;2.35;;
26582;SDS011;14230;45.382;10.998;2022-09-02T00:29:23;6.82;;;2.10;;
26582;SDS011;14230;45.382;10.998;2022-09-02T00:31:52;3.38;;;2.30;;
26582;SDS011;14230;45.382;10.998;2022-09-02T00:34:20;6.85;;;2.28;;
26582;SDS011;14230;45.382;10.998;2022-09-02T00:36:47;3.20;;;2.30;;
26582;SDS011;14230;45.382;10.998;2022-09-02T00:39:15;5.13;;;2.03;;
26582;SDS011;14230;45.382;10.998;2022-09-02T00:41:43;5.70;;;2.25;;
26582;SDS011;14230;45.382;10.998;2022-09-02T00:44:12;4.25;;;2.30;;
26582;SDS011;14230;45.382;10.998;2022-09-02T00:46:42;7.88;;;2.45;;
26582;SDS011;14230;45.382;10.998;2022-09-02T00:49:17;4.82;;;2.30;;
26582;SDS011;14230;45.382;10.998;2022-09-02T00:54:21;2.78;;;2.10;;
26582;SDS011;14230;45.382;10.998;2022-09-02T00:56:50;6.88;;;2.28;;
26582;SDS011;14230;45.382;10.998;2022-09-02T01:02:12;3.70;;;2.30;;
26582;SDS011;14230;45.382;10.998;2022-09-02T01:04:40;3.70;;;2.50;;
26582;SDS011;14230;45.382;10.998;2022-09-02T01:07:09;3.83;;;2.63;;
26582;SDS011;14230;45.382;10.998;2022-09-02T01:09:37;6.82;;;2.58;;
26582;SDS011;14230;45.382;10.998;2022-09-02T01:12:05;5.90;;;2.42;;
26582;SDS011;14230;45.382;10.998;2022-09-02T01:14:33;4.60;;;2.45;;
26582;SDS011;14230;45.382;10.998;2022-09-02T01:17:02;3.05;;;2.20;;
26582;SDS011;14230;45.382;10.998;2022-09-02T01:19:37;3.60;;;2.13;;
26582;SDS011;14230;45.382;10.998;2022-09-02T01:22:15;3.92;;;2.45;;
26582;SDS011;14230;45.382;10.998;2022-09-02T01:24:45;7.55;;;2.33;;
26582;SDS011;14230;45.382;10.998;2022-09-02T01:27:16;7.25;;;2.38;;
26582;SDS011;14230;45.382;10.998;2022-09-02T01:29:49;4.20;;;2.33;;
26582;SDS011;14230;45.382;10.998;2022-09-02T01:32:19;3.00;;;2.63;;
26582;SDS011;14230;45.382;10.998;2022-09-02T01:34:47;4.53;;;2.55;;
26582;SDS011;14230;45.382;10.998;2022-09-02T01:37:15;3.63;;;2.30;;
26582;SDS011;14230;45.382;10.998;2022-09-02T01:39:43;4.03;;;2.30;;
26582;SDS011;14230;45.382;10.998;2022-09-02T01:42:11;4.30;;;2.72;;
26582;SDS011;14230;45.382;10.998;2022-09-02T01:44:41;5.82;;;2.60;;
26582;SDS011;14230;45.382;10.998;2022-09-02T01:47:13;3.20;;;2.50;;
26582;SDS011;14230;45.382;10.998;2022-09-02T01:49:44;4.10;;;2.92;;
26582;SDS011;14230;45.382;10.998;2022-09-02T01:52:12;5.95;;;2.53;;
26582;SDS011;14230;45.382;10.998;2022-09-02T01:54:41;4.38;;;3.00;;
26582;SDS011;14230;45.382;10.998;2022-09-02T01:57:11;3.25;;;2.40;;
26582;SDS011;14230;45.382;10.998;2022-09-02T01:59:40;4.65;;;2.40;;
26582;SDS011;14230;45.382;10.998;2022-09-02T02:02:11;3.97;;;2.42;;
26582;SDS011;14230;45.382;10.998;2022-09-02T02:04:40;6.35;;;3.25;;
26582;SDS011;14230;45.382;10.998;2022-09-02T02:07:08;6.82;;;3.20;;
26582;SDS011;14230;45.382;10.998;2022-09-02T02:09:35;5.30;;;2.88;;
26582;SDS011;14230;45.382;10.998;2022-09-02T02:12:03;7.03;;;2.92;;
26582;SDS011;14230;45.382;10.998;2022-09-02T02:14:32;6.00;;;2.95;;
26582;SDS011;14230;45.382;10.998;2022-09-02T02:17:00;10.30;;;3.72;;
26582;SDS011;14230;45.382;10.998;2022-09-02T02:19:28;3.75;;;2.72;;
26582;SDS011;14230;45.382;10.998;2022-09-02T02:21:57;5.78;;;2.60;;
26582;SDS011;14230;45.382;10.998;2022-09-02T02:24:25;6.53;;;2.55;;
26582;SDS011;14230;45.382;10.998;2022-09-02T02:26:53;6.63;;;2.78;;
26582;SDS011;14230;45.382;10.998;2022-09-02T02:29:21;5.38;;;2.88;;
26582;SDS011;14230;45.382;10.998;2022-09-02T02:31:49;5.55;;;2.90;;
26582;SDS011;14230;45.382;10.998;2022-09-02T02:34:17;3.88;;;2.65;;
26582;SDS011;14230;45.382;10.998;2022-09-02T02:36:45;6.20;;;2.50;;
26582;SDS011;14230;45.382;10.998;2022-09-02T02:39:13;8.75;;;2.60;;
26582;SDS011;14230;45.382;10.998;2022-09-02T02:41:43;4.75;;;2.40;;
26582;SDS011;14230;45.382;10.998;2022-09-02T02:44:13;4.40;;;2.63;;
26582;SDS011;14230;45.382;10.998;2022-09-02T02:46:41;3.90;;;2.60;;
26582;SDS011;14230;45.382;10.998;2022-09-02T02:49:09;3.53;;;2.67;;
26582;SDS011;14230;45.382;10.998;2022-09-02T02:51:37;4.47;;;2.20;;
26582;SDS011;14230;45.382;10.998;2022-09-02T02:54:05;6.03;;;2.58;;
26582;SDS011;14230;45.382;10.998;2022-09-02T02:56:32;5.18;;;2.38;;
26582;SDS011;14230;45.382;10.998;2022-09-02T02:59:02;3.75;;;2.70;;
26582;SDS011;14230;45.382;10.998;2022-09-02T03:01:31;6.25;;;2.60;;
26582;SDS011;14230;45.382;10.998;2022-09-02T03:03:59;6.47;;;2.70;;
26582;SDS011;14230;45.382;10.998;2022-09-02T03:06:27;2.95;;;2.17;;
26582;SDS011;14230;45.382;10.998;2022-09-02T03:08:55;5.28;;;2.47;;
26582;SDS011;14230;45.382;10.998;2022-09-02T03:11:23;6.65;;;3.17;;
26582;SDS011;14230;45.382;10.998;2022-09-02T03:13:55;5.25;;;2.42;;
26582;SDS011;14230;45.382;10.998;2022-09-02T03:16:23;5.93;;;2.50;;
26582;SDS011;14230;45.382;10.998;2022-09-02T03:18:53;5.22;;;2.38;;
26582;SDS011;14230;45.382;10.998;2022-09-02T03:21:20;4.35;;;2.17;;
26582;SDS011;14230;45.382;10.998;2022-09-02T03:23:48;5.20;;;2.10;;
26582;SDS011;14230;45.382;10.998;2022-09-02T03:26:19;7.90;;;3.17;;
26582;SDS011;14230;45.382;10.998;2022-09-02T03:28:50;3.75;;;2.20;;
26582;SDS011;14230;45.382;10.998;2022-09-02T03:31:21;9.10;;;2.72;;
26582;SDS011;14230;45.382;10.998;2022-09-02T03:33:51;4.20;;;2.45;;
26582;SDS011;14230;45.382;10.998;2022-09-02T03:36:34;3.70;;;2.17;;
26582;SDS011;14230;45.382;10.998;2022-09-02T03:39:05;7.72;;;2.65;;
26582;SDS011;14230;45.382;10.998;2022-09-02T03:41:37;6.10;;;2.40;;
26582;SDS011;14230;45.382;10.998;2022-09-02T03:44:09;7.15;;;2.50;;
26582;SDS011;14230;45.382;10.998;2022-09-02T03:46:38;3.13;;;2.13;;
26582;SDS011;14230;45.382;10.998;2022-09-02T03:49:06;4.97;;;2.50;;
26582;SDS011;14230;45.382;10.998;2022-09-02T03:51:33;2.78;;;2.42;;
26582;SDS011;14230;45.382;10.998;2022-09-02T03:54:01;8.18;;;3.10;;
26582;SDS011;14230;45.382;10.998;2022-09-02T03:56:30;5.28;;;2.38;;
26582;SDS011;14230;45.382;10.998;2022-09-02T03:58:57;5.32;;;2.47;;
26582;SDS011;14230;45.382;10.998;2022-09-02T04:01:27;8.50;;;3.95;;
26582;SDS011;14230;45.382;10.998;2022-09-02T04:04:03;3.65;;;2.50;;
26582;SDS011;14230;45.382;10.998;2022-09-02T04:06:33;3.75;;;2.72;;
26582;SDS011;14230;45.382;10.998;2022-09-02T04:09:02;3.35;;;2.85;;
26582;SDS011;14230;45.382;10.998;2022-09-02T04:11:32;4.70;;;2.63;;
26582;SDS011;14230;45.382;10.998;2022-09-02T04:13:59;6.70;;;3.15;;
26582;SDS011;14230;45.382;10.998;2022-09-02T04:16:28;6.78;;;2.60;;
26582;SDS011;14230;45.382;10.998;2022-09-02T04:19:00;4.28;;;2.63;;
26582;SDS011;14230;45.382;10.998;2022-09-02T04:21:30;5.22;;;2.90;;
26582;SDS011;14230;45.382;10.998;2022-09-02T04:24:00;7.30;;;3.08;;
26582;SDS011;14230;45.382;10.998;2022-09-02T04:26:28;3.33;;;2.78;;
26582;SDS011;14230;45.382;10.998;2022-09-02T04:28:57;6.40;;;3.15;;
26582;SDS011;14230;45.382;10.998;2022-09-02T04:31:28;7.47;;;3.72;;
26582;SDS011;14230;45.382;10.998;2022-09-02T04:33:58;6.18;;;3.60;;
26582;SDS011;14230;45.382;10.998;2022-09-02T04:36:26;5.50;;;3.40;;
26582;SDS011;14230;45.382;10.998;2022-09-02T04:38:59;6.82;;;4.15;;
26582;SDS011;14230;45.382;10.998;2022-09-02T04:41:30;10.40;;;3.28;;
26582;SDS011;14230;45.382;10.998;2022-09-02T04:44:02;5.60;;;3.15;;
26582;SDS011;14230;45.382;10.998;2022-09-02T04:46:35;9.75;;;3.75;;
26582;SDS011;14230;45.382;10.998;2022-09-02T04:49:07;5.80;;;3.35;;
26582;SDS011;14230;45.382;10.998;2022-09-02T04:51:35;14.40;;;3.72;;
26582;SDS011;14230;45.382;10.998;2022-09-02T04:54:04;9.43;;;3.60;;
26582;SDS011;14230;45.382;10.998;2022-09-02T04:56:35;6.13;;;3.78;;
26582;SDS011;14230;45.382;10.998;2022-09-02T04:59:04;5.78;;;3.83;;
26582;SDS011;14230;45.382;10.998;2022-09-02T05:01:34;7.53;;;3.28;;
26582;SDS011;14230;45.382;10.998;2022-09-02T05:04:12;7.00;;;3.83;;
26582;SDS011;14230;45.382;10.998;2022-09-02T05:06:45;10.85;;;3.75;;
26582;SDS011;14230;45.382;10.998;2022-09-02T05:09:19;10.98;;;4.10;;
26582;SDS011;14230;45.382;10.998;2022-09-02T05:11:57;12.95;;;3.75;;
26582;SDS011;14230;45.382;10.998;2022-09-02T05:14:38;8.02;;;3.08;;
26582;SDS011;14230;45.382;10.998;2022-09-02T05:17:07;11.50;;;3.70;;
26582;SDS011;14230;45.382;10.998;2022-09-02T05:19:38;5.88;;;3.45;;
26582;SDS011;14230;45.382;10.998;2022-09-02T05:22:06;7.78;;;3.70;;
26582;SDS011;14230;45.382;10.998;2022-09-02T05:24:38;8.53;;;3.00;;
26582;SDS011;14230;45.382;10.998;2022-09-02T05:27:09;6.72;;;2.50;;
26582;SDS011;14230;45.382;10.998;2022-09-02T05:29:38;7.20;;;2.75;;
26582;SDS011;14230;45.382;10.998;2022-09-02T05:32:11;7.25;;;2.85;;
26582;SDS011;14230;45.382;10.998;2022-09-02T05:34:39;5.18;;;2.50;;
26582;SDS011;14230;45.382;10.998;2022-09-02T05:37:06;6.13;;;2.42;;
26582;SDS011;14230;45.382;10.998;2022-09-02T05:39:35;7.78;;;2.92;;
26582;SDS011;14230;45.382;10.998;2022-09-02T05:42:05;11.65;;;3.13;;
26582;SDS011;14230;45.382;10.998;2022-09-02T05:44:34;6.55;;;2.60;;
26582;SDS011;14230;45.382;10.998;2022-09-02T05:47:03;5.38;;;2.50;;
26582;SDS011;14230;45.382;10.998;2022-09-02T05:49:32;9.25;;;2.80;;
26582;SDS011;14230;45.382;10.998;2022-09-02T05:52:07;9.30;;;2.38;;
26582;SDS011;14230;45.382;10.998;2022-09-02T05:54:44;5.80;;;2.25;;
26582;SDS011;14230;45.382;10.998;2022-09-02T05:57:15;10.00;;;2.70;;
26582;SDS011;14230;45.382;10.998;2022-09-02T06:00:04;7.10;;;2.30;;
26582;SDS011;14230;45.382;10.998;2022-09-02T06:02:39;6.55;;;2.50;;
26582;SDS011;14230;45.382;10.998;2022-09-02T06:07:44;9.23;;;3.45;;
26582;SDS011;14230;45.382;10.998;2022-09-02T06:10:12;6.65;;;2.78;;
26582;SDS011;14230;45.382;10.998;2022-09-02T06:12:40;6.43;;;2.60;;
26582;SDS011;14230;45.382;10.998;2022-09-02T06:15:09;7.00;;;2.22;;
26582;SDS011;14230;45.382;10.998;2022-09-02T06:17:43;10.07;;;2.28;;
26582;SDS011;14230;45.382;10.998;2022-09-02T06:20:12;6.72;;;2.20;;
26582;SDS011;14230;45.382;10.998;2022-09-02T06:22:41;5.43;;;2.28;;
26582;SDS011;14230;45.382;10.998;2022-09-02T06:25:10;3.83;;;2.05;;
26582;SDS011;14230;45.382;10.998;2022-09-02T06:27:39;10.18;;;2.63;;
26582;SDS011;14230;45.382;10.998;2022-09-02T06:30:08;5.50;;;2.28;;
26582;SDS011;14230;45.382;10.998;2022-09-02T06:32:36;4.28;;;1.80;;
26582;SDS011;14230;45.382;10.998;2022-09-02T06:35:08;4.35;;;1.83;;
26582;SDS011;14230;45.382;10.998;2022-09-02T06:37:37;2.17;;;1.77;;
26582;SDS011;14230;45.382;10.998;2022-09-02T06:40:05;4.78;;;1.80;;
26582;SDS011;14230;45.382;10.998;2022-09-02T06:42:34;2.10;;;1.50;;
26582;SDS011;14230;45.382;10.998;2022-09-02T06:45:10;8.30;;;2.13;;
26582;SDS011;14230;45.382;10.998;2022-09-02T06:47:38;5.15;;;1.92;;
26582;SDS011;14230;45.382;10.998;2022-09-02T06:50:07;5.43;;;2.17;;
26582;SDS011;14230;45.382;10.998;2022-09-02T06:52:35;3.70;;;2.15;;
26582;SDS011;14230;45.382;10.998;2022-09-02T06:55:04;3.45;;;2.45;;
26582;SDS011;14230;45.382;10.998;2022-09-02T06:57:31;9.90;;;7.47;;
26582;SDS011;14230;45.382;10.998;2022-09-02T07:00:05;6.85;;;3.40;;
26582;SDS011;14230;45.382;10.998;2022-09-02T07:02:36;9.93;;;4.00;;
26582;SDS011;14230;45.382;10.998;2022-09-02T07:05:04;13.57;;;4.13;;
26582;SDS011;14230;45.382;10.998;2022-09-02T07:07:42;18.15;;;4.30;;
26582;SDS011;14230;45.382;10.998;2022-09-02T07:10:13;10.13;;;3.22;;
26582;SDS011;14230;45.382;10.998;2022-09-02T07:12:47;9.68;;;3.70;;
26582;SDS011;14230;45.382;10.998;2022-09-02T07:15:16;4.78;;;3.42;;
26582;SDS011;14230;45.382;10.998;2022-09-02T07:17:44;6.95;;;3.25;;
26582;SDS011;14230;45.382;10.998;2022-09-02T07:20:22;6.70;;;3.47;;
26582;SDS011;14230;45.382;10.998;2022-09-02T07:22:57;3.67;;;2.80;;
26582;SDS011;14230;45.382;10.998;2022-09-02T07:25:28;5.53;;;3.30;;
26582;SDS011;14230;45.382;10.998;2022-09-02T07:27:57;6.93;;;3.15;;
26582;SDS011;14230;45.382;10.998;2022-09-02T07:30:29;8.13;;;3.00;;
26582;SDS011;14230;45.382;10.998;2022-09-02T07:33:04;10.10;;;3.15;;
26582;SDS011;14230;45.382;10.998;2022-09-02T07:35:32;8.32;;;2.70;;
26582;SDS011;14230;45.382;10.998;2022-09-02T07:38:02;3.30;;;2.42;;
26582;SDS011;14230;45.382;10.998;2022-09-02T07:40:31;7.45;;;2.53;;
26582;SDS011;14230;45.382;10.998;2022-09-02T07:42:59;3.15;;;2.10;;
26582;SDS011;14230;45.382;10.998;2022-09-02T07:45:27;3.53;;;1.90;;
26582;SDS011;14230;45.382;10.998;2022-09-02T07:47:56;5.20;;;2.50;;
26582;SDS011;14230;45.382;10.998;2022-09-02T07:50:25;3.42;;;1.67;;
26582;SDS011;14230;45.382;10.998;2022-09-02T07:52:54;6.25;;;2.25;;
26582;SDS011;14230;45.382;10.998;2022-09-02T07:55:25;4.00;;;1.75;;
26582;SDS011;14230;45.382;10.998;2022-09-02T07:57:57;4.50;;;2.40;;
26582;SDS011;14230;45.382;10.998;2022-09-02T08:00:25;9.63;;;2.50;;
26582;SDS011;14230;45.382;10.998;2022-09-02T08:03:02;5.97;;;2.10;;
26582;SDS011;14230;45.382;10.998;2022-09-02T08:05:36;3.00;;;1.85;;
26582;SDS011;14230;45.382;10.998;2022-09-02T08:08:04;4.15;;;1.48;;
26582;SDS011;14230;45.382;10.998;2022-09-02T08:10:32;5.90;;;1.83;;
26582;SDS011;14230;45.382;10.998;2022-09-02T08:13:02;3.00;;;1.85;;
26582;SDS011;14230;45.382;10.998;2022-09-02T08:15:33;3.47;;;1.80;;
26582;SDS011;14230;45.382;10.998;2022-09-02T08:18:02;5.68;;;1.88;;
26582;SDS011;14230;45.382;10.998;2022-09-02T08:20:30;3.15;;;1.60;;
26582;SDS011;14230;45.382;10.998;2022-09-02T08:22:58;2.97;;;1.60;;
26582;SDS011;14230;45.382;10.998;2022-09-02T08:25:38;3.63;;;1.60;;
26582;SDS011;14230;45.382;10.998;2022-09-02T08:28:06;2.22;;;2.03;;
26582;SDS011;14230;45.382;10.998;2022-09-02T08:30:34;5.50;;;1.40;;
26582;SDS011;14230;45.382;10.998;2022-09-02T08:33:02;2.45;;;1.80;;
26582;SDS011;14230;45.382;10.998;2022-09-02T08:35:31;2.60;;;1.42;;
26582;SDS011;14230;45.382;10.998;2022-09-02T08:37:58;3.00;;;1.58;;
26582;SDS011;14230;45.382;10.998;2022-09-02T08:40:30;2.97;;;1.60;;
26582;SDS011;14230;45.382;10.998;2022-09-02T08:43:06;2.35;;;1.58;;
26582;SDS011;14230;45.382;10.998;2022-09-02T08:45:47;3.70;;;1.60;;
26582;SDS011;14230;45.382;10.998;2022-09-02T08:48:19;3.33;;;1.70;;
26582;SDS011;14230;45.382;10.998;2022-09-02T08:50:57;2.13;;;1.67;;
26582;SDS011;14230;45.382;10.998;2022-09-02T08:53:39;3.45;;;1.38;;
26582;SDS011;14230;45.382;10.998;2022-09-02T08:56:20;7.45;;;1.92;;
26582;SDS011;14230;45.382;10.998;2022-09-02T08:58:48;7.53;;;2.20;;
26582;SDS011;14230;45.382;10.998;2022-09-02T09:04:18;3.63;;;1.48;;
26582;SDS011;14230;45.382;10.998;2022-09-02T09:12:36;4.80;;;1.63;;
26582;SDS011;14230;45.382;10.998;2022-09-02T09:18:15;3.90;;;2.90;;
26582;SDS011;14230;45.382;10.998;2022-09-02T09:25:51;3.13;;;1.38;;
26582;SDS011;14230;45.382;10.998;2022-09-02T09:28:25;3.72;;;1.75;;
26582;SDS011;14230;45.382;10.998;2022-09-02T09:30:54;3.83;;;1.55;;
26582;SDS011;14230;45.382;10.998;2022-09-02T09:33:21;4.45;;;1.77;;
26582;SDS011;14230;45.382;10.998;2022-09-02T09:35:53;3.05;;;1.58;;
26582;SDS011;14230;45.382;10.998;2022-09-02T09:38:29;4.43;;;1.55;;
26582;SDS011;14230;45.382;10.998;2022-09-02T09:41:09;2.35;;;1.73;;
26582;SDS011;14230;45.382;10.998;2022-09-02T09:43:48;2.60;;;1.50;;
26582;SDS011;14230;45.382;10.998;2022-09-02T09:46:19;2.85;;;1.88;;
26582;SDS011;14230;45.382;10.998;2022-09-02T09:48:53;3.35;;;1.30;;
26582;SDS011;14230;45.382;10.998;2022-09-02T09:51:20;4.60;;;1.63;;
26582;SDS011;14230;45.382;10.998;2022-09-02T09:53:48;6.25;;;1.70;;
26582;SDS011;14230;45.382;10.998;2022-09-02T09:58:44;2.22;;;1.42;;
26582;SDS011;14230;45.382;10.998;2022-09-02T10:06:55;2.38;;;1.25;;
26582;SDS011;14230;45.382;10.998;2022-09-02T10:09:34;3.35;;;1.67;;
26582;SDS011;14230;45.382;10.998;2022-09-02T10:12:07;8.48;;;1.83;;
26582;SDS011;14230;45.382;10.998;2022-09-02T10:14:47;2.90;;;1.40;;
26582;SDS011;14230;45.382;10.998;2022-09-02T10:23:04;2.63;;;1.60;;
26582;SDS011;14230;45.382;10.998;2022-09-02T10:36:20;2.47;;;1.67;;
26582;SDS011;14230;45.382;10.998;2022-09-02T10:41:47;4.18;;;1.50;;
26582;SDS011;14230;45.382;10.998;2022-09-02T10:52:25;5.47;;;1.83;;
26582;SDS011;14230;45.382;10.998;2022-09-02T10:58:09;4.80;;;1.73;;
26582;SDS011;14230;45.382;10.998;2022-09-02T11:00:49;5.18;;;1.95;;
26582;SDS011;14230;45.382;10.998;2022-09-02T11:03:32;4.97;;;1.93;;
26582;SDS011;14230;45.382;10.998;2022-09-02T11:08:52;3.17;;;1.90;;
26582;SDS011;14230;45.382;10.998;2022-09-02T11:11:57;3.63;;;2.10;;
26582;SDS011;14230;45.382;10.998;2022-09-02T11:14:30;3.63;;;2.03;;
26582;SDS011;14230;45.382;10.998;2022-09-02T11:17:26;2.00;;;1.67;;
26582;SDS011;14230;45.382;10.998;2022-09-02T11:23:02;4.10;;;2.22;;
26582;SDS011;14230;45.382;10.998;2022-09-02T11:25:35;4.28;;;2.35;;
26582;SDS011;14230;45.382;10.998;2022-09-02T11:30:56;3.45;;;2.17;;
26582;SDS011;14230;45.382;10.998;2022-09-02T11:36:36;2.00;;;1.80;;
26582;SDS011;14230;45.382;10.998;2022-09-02T11:39:11;2.42;;;2.05;;
26582;SDS011;14230;45.382;10.998;2022-09-02T11:42:03;7.65;;;2.10;;
26582;SDS011;14230;45.382;10.998;2022-09-02T11:55:20;5.15;;;2.28;;
26582;SDS011;14230;45.382;10.998;2022-09-02T11:57:52;6.40;;;2.03;;
26582;SDS011;14230;45.382;10.998;2022-09-02T12:00:34;7.85;;;3.25;;
26582;SDS011;14230;45.382;10.998;2022-09-02T12:03:22;5.30;;;2.17;;
26582;SDS011;14230;45.382;10.998;2022-09-02T12:06:15;2.58;;;2.15;;
26582;SDS011;14230;45.382;10.998;2022-09-02T12:14:09;6.27;;;2.00;;
26582;SDS011;14230;45.382;10.998;2022-09-02T12:17:06;3.17;;;2.43;;
26582;SDS011;14230;45.382;10.998;2022-09-02T12:24:49;8.32;;;2.10;;
26582;SDS011;14230;45.382;10.998;2022-09-02T12:27:25;2.33;;;2.03;;
26582;SDS011;14230;45.382;10.998;2022-09-02T12:29:53;2.80;;;2.50;;
26582;SDS011;14230;45.382;10.998;2022-09-02T12:38:20;3.10;;;1.92;;
26582;SDS011;14230;45.382;10.998;2022-09-02T12:43:29;6.25;;;1.95;;
26582;SDS011;14230;45.382;10.998;2022-09-02T12:52:00;5.35;;;2.35;;
26582;SDS011;14230;45.382;10.998;2022-09-02T12:54:48;4.13;;;1.80;;
26582;SDS011;14230;45.382;10.998;2022-09-02T12:57:17;3.05;;;1.70;;
26582;SDS011;14230;45.382;10.998;2022-09-02T12:59:45;4.25;;;2.00;;
26582;SDS011;14230;45.382;10.998;2022-09-02T13:08:29;9.73;;;1.83;;
26582;SDS011;14230;45.382;10.998;2022-09-02T13:14:12;3.38;;;1.92;;
26582;SDS011;14230;45.382;10.998;2022-09-02T13:25:34;2.13;;;1.88;;
26582;SDS011;14230;45.382;10.998;2022-09-02T13:31:15;5.70;;;2.25;;
26582;SDS011;14230;45.382;10.998;2022-09-02T13:36:41;4.43;;;1.70;;
26582;SDS011;14230;45.382;10.998;2022-09-02T13:39:22;5.03;;;2.40;;
26582;SDS011;14230;45.382;10.998;2022-09-02T13:41:51;2.17;;;1.70;;
26582;SDS011;14230;45.382;10.998;2022-09-02T13:44:20;2.78;;;1.80;;
26582;SDS011;14230;45.382;10.998;2022-09-02T13:47:02;2.40;;;1.63;;
26582;SDS011;14230;45.382;10.998;2022-09-02T13:49:41;3.60;;;2.05;;
26582;SDS011;14230;45.382;10.998;2022-09-02T13:52:19;1.52;;;1.42;;
26582;SDS011;14230;45.382;10.998;2022-09-02T13:55:09;6.70;;;2.10;;
26582;SDS011;14230;45.382;10.998;2022-09-02T13:57:43;8.00;;;5.55;;
26582;SDS011;14230;45.382;10.998;2022-09-02T14:00:18;3.45;;;2.40;;
26582;SDS011;14230;45.382;10.998;2022-09-02T14:03:08;2.50;;;1.80;;
26582;SDS011;14230;45.382;10.998;2022-09-02T14:05:40;1.73;;;1.63;;
26582;SDS011;14230;45.382;10.998;2022-09-02T14:08:14;6.35;;;1.92;;
26582;SDS011;14230;45.382;10.998;2022-09-02T14:10:50;2.92;;;1.60;;
26582;SDS011;14230;45.382;10.998;2022-09-02T14:13:20;4.38;;;1.80;;
26582;SDS011;14230;45.382;10.998;2022-09-02T14:15:48;4.55;;;1.85;;
26582;SDS011;14230;45.382;10.998;2022-09-02T14:18:20;5.95;;;1.90;;
26582;SDS011;14230;45.382;10.998;2022-09-02T14:23:26;2.25;;;1.70;;
26582;SDS011;14230;45.382;10.998;2022-09-02T14:25:56;4.68;;;2.10;;
26582;SDS011;14230;45.382;10.998;2022-09-02T14:28:26;4.57;;;2.00;;
26582;SDS011;14230;45.382;10.998;2022-09-02T14:31:03;5.53;;;2.22;;
26582;SDS011;14230;45.382;10.998;2022-09-02T14:33:42;3.72;;;1.88;;
26582;SDS011;14230;45.382;10.998;2022-09-02T14:46:21;4.15;;;1.77;;
26582;SDS011;14230;45.382;10.998;2022-09-02T14:48:58;6.18;;;2.00;;
26582;SDS011;14230;45.382;10.998;2022-09-02T14:51:33;4.72;;;2.13;;
26582;SDS011;14230;45.382;10.998;2022-09-02T14:54:03;2.25;;;2.00;;
26582;SDS011;14230;45.382;10.998;2022-09-02T14:56:44;3.92;;;1.83;;
26582;SDS011;14230;45.382;10.998;2022-09-02T14:59:17;4.53;;;1.73;;
26582;SDS011;14230;45.382;10.998;2022-09-02T15:01:46;6.80;;;2.47;;
26582;SDS011;14230;45.382;10.998;2022-09-02T15:04:17;4.18;;;2.00;;
26582;SDS011;14230;45.382;10.998;2022-09-02T15:06:45;4.85;;;1.83;;
26582;SDS011;14230;45.382;10.998;2022-09-02T15:09:13;4.43;;;1.80;;
26582;SDS011;14230;45.382;10.998;2022-09-02T15:11:47;6.60;;;2.10;;
26582;SDS011;14230;45.382;10.998;2022-09-02T15:14:19;2.58;;;1.90;;
26582;SDS011;14230;45.382;10.998;2022-09-02T15:16:46;4.97;;;1.80;;
26582;SDS011;14230;45.382;10.998;2022-09-02T15:19:14;3.83;;;2.20;;
26582;SDS011;14230;45.382;10.998;2022-09-02T15:21:41;2.80;;;1.70;;
26582;SDS011;14230;45.382;10.998;2022-09-02T15:24:09;6.00;;;2.00;;
26582;SDS011;14230;45.382;10.998;2022-09-02T15:26:36;4.55;;;1.90;;
26582;SDS011;14230;45.382;10.998;2022-09-02T15:29:04;6.32;;;2.85;;
26582;SDS011;14230;45.382;10.998;2022-09-02T15:31:31;2.83;;;1.92;;
26582;SDS011;14230;45.382;10.998;2022-09-02T15:33:59;3.92;;;2.30;;
26582;SDS011;14230;45.382;10.998;2022-09-02T15:36:27;4.90;;;3.35;;
26582;SDS011;14230;45.382;10.998;2022-09-02T15:38:56;3.63;;;2.22;;
26582;SDS011;14230;45.382;10.998;2022-09-02T15:41:23;3.35;;;2.20;;
26582;SDS011;14230;45.382;10.998;2022-09-02T15:43:53;6.15;;;1.90;;
26582;SDS011;14230;45.382;10.998;2022-09-02T15:48:53;4.35;;;2.00;;
26582;SDS011;14230;45.382;10.998;2022-09-02T15:51:28;5.03;;;1.90;;
26582;SDS011;14230;45.382;10.998;2022-09-02T15:53:56;5.15;;;2.38;;
26582;SDS011;14230;45.382;10.998;2022-09-02T15:56:26;6.78;;;2.15;;
26582;SDS011;14230;45.382;10.998;2022-09-02T15:58:58;6.00;;;2.17;;
26582;SDS011;14230;45.382;10.998;2022-09-02T16:01:28;4.30;;;2.10;;
26582;SDS011;14230;45.382;10.998;2022-09-02T16:04:00;2.65;;;2.03;;
26582;SDS011;14230;45.382;10.998;2022-09-02T16:06:28;3.58;;;2.15;;
26582;SDS011;14230;45.382;10.998;2022-09-02T16:08:59;3.08;;;1.95;;
26582;SDS011;14230;45.382;10.998;2022-09-02T16:11:27;4.40;;;2.05;;
26582;SDS011;14230;45.382;10.998;2022-09-02T16:13:54;3.90;;;1.98;;
26582;SDS011;14230;45.382;10.998;2022-09-02T16:16:21;2.00;;;1.80;;
26582;SDS011;14230;45.382;10.998;2022-09-02T16:18:50;5.53;;;2.00;;
26582;SDS011;14230;45.382;10.998;2022-09-02T16:21:19;3.97;;;1.90;;
26582;SDS011;14230;45.382;10.998;2022-09-02T16:23:49;5.68;;;2.10;;
26582;SDS011;14230;45.382;10.998;2022-09-02T16:28:57;5.22;;;2.33;;
26582;SDS011;14230;45.382;10.998;2022-09-02T16:31:30;6.05;;;2.33;;
26582;SDS011;14230;45.382;10.998;2022-09-02T16:34:07;6.80;;;2.45;;
26582;SDS011;14230;45.382;10.998;2022-09-02T16:36:46;6.75;;;2.30;;
26582;SDS011;14230;45.382;10.998;2022-09-02T16:39:16;3.25;;;2.15;;
26582;SDS011;14230;45.382;10.998;2022-09-02T16:41:46;5.60;;;2.00;;
26582;SDS011;14230;45.382;10.998;2022-09-02T16:44:20;4.25;;;2.38;;
26582;SDS011;14230;45.382;10.998;2022-09-02T16:46:49;5.68;;;2.50;;
26582;SDS011;14230;45.382;10.998;2022-09-02T16:49:19;7.57;;;2.47;;
26582;SDS011;14230;45.382;10.998;2022-09-02T16:51:48;6.47;;;2.40;;
26582;SDS011;14230;45.382;10.998;2022-09-02T16:54:25;3.50;;;2.53;;
26582;SDS011;14230;45.382;10.998;2022-09-02T16:56:58;6.38;;;3.17;;
26582;SDS011;14230;45.382;10.998;2022-09-02T16:59:26;3.95;;;2.50;;
26582;SDS011;14230;45.382;10.998;2022-09-02T17:01:54;4.30;;;2.00;;
26582;SDS011;14230;45.382;10.998;2022-09-02T17:04:22;2.65;;;2.22;;
26582;SDS011;14230;45.382;10.998;2022-09-02T17:06:50;7.00;;;2.50;;
26582;SDS011;14230;45.382;10.998;2022-09-02T17:09:17;2.53;;;2.22;;
26582;SDS011;14230;45.382;10.998;2022-09-02T17:11:45;3.63;;;2.25;;
26582;SDS011;14230;45.382;10.998;2022-09-02T17:14:15;5.25;;;2.50;;
26582;SDS011;14230;45.382;10.998;2022-09-02T17:16:44;3.20;;;2.10;;
26582;SDS011;14230;45.382;10.998;2022-09-02T17:19:14;4.03;;;2.15;;
26582;SDS011;14230;45.382;10.998;2022-09-02T17:21:48;7.63;;;3.00;;
26582;SDS011;14230;45.382;10.998;2022-09-02T17:24:18;6.47;;;3.08;;
26582;SDS011;14230;45.382;10.998;2022-09-02T17:26:48;5.40;;;4.90;;
26582;SDS011;14230;45.382;10.998;2022-09-02T17:29:18;6.25;;;4.00;;
26582;SDS011;14230;45.382;10.998;2022-09-02T17:32:06;11.07;;;2.92;;